createdAt,value
2023-01-08T00:01:16.090Z,99995.38
2023-01-08T00:03:43.468Z,99997.78
2023-01-08T00:06:15.649Z,100005.06
2023-01-08T00:08:43.008Z,99994.16
2023-01-08T00:11:09.846Z,99987.88
2023-01-08T00:13:37.083Z,99992.16
2023-01-08T00:16:09.775Z,99989.94
2023-01-08T00:18:36.913Z,99985.59
2023-01-08T00:21:04.103Z,99975.44
2023-01-08T00:23:31.065Z,99974.63
2023-01-08T00:25:57.805Z,99980.72
2023-01-08T00:28:25.803Z,99972.25
2023-01-08T00:30:53.256Z,99969.50
2023-01-08T00:33:20.044Z,99971.56
2023-01-08T00:35:47.010Z,99960.25
2023-01-08T00:38:13.957Z,99965.72
2023-01-08T00:40:40.753Z,99961.09
2023-01-08T00:43:07.969Z,99954.47
2023-01-08T00:45:34.850Z,99965.22
2023-01-08T00:48:01.752Z,99964.81
2023-01-08T00:50:28.492Z,99957.56
2023-01-08T00:52:55.447Z,99946.25
2023-01-08T00:55:22.285Z,99948.16
2023-01-08T00:57:49.127Z,99953.22
2023-01-08T01:00:16.663Z,99985.75
2023-01-08T01:02:44.074Z,99974.09
2023-01-08T01:05:15.246Z,99964.91
2023-01-08T01:07:46.011Z,99967.91
2023-01-08T01:10:14.330Z,99966.78
2023-01-08T01:12:41.881Z,99967.16
2023-01-08T01:15:11.457Z,99962.88
2023-01-08T01:17:39.510Z,99980.69
2023-01-08T01:20:08.011Z,99976.56
2023-01-08T01:22:34.993Z,99978.06
2023-01-08T01:25:01.993Z,99958.00
2023-01-08T01:27:28.809Z,99952.28
2023-01-08T01:29:55.535Z,99953.75
2023-01-08T01:32:22.507Z,99961.84
2023-01-08T01:34:49.449Z,99957.34
2023-01-08T01:37:16.790Z,99958.03
2023-01-08T01:39:43.659Z,99943.47
2023-01-08T01:42:33.758Z,99940.81
2023-01-08T01:45:00.761Z,99935.88
2023-01-08T01:47:34.778Z,99941.34
2023-01-08T01:50:22.101Z,99952.75
2023-01-08T01:52:59.836Z,99956.09
2023-01-08T01:55:27.802Z,99970.63
2023-01-08T01:58:08.680Z,99975.47
2023-01-08T02:00:35.451Z,99971.84
2023-01-08T02:03:02.541Z,99968.00
2023-01-08T02:05:59.629Z,99962.94
2023-01-08T02:08:41.574Z,99945.09
2023-01-08T02:11:14.129Z,99943.09
2023-01-08T02:13:45.552Z,99946.09
2023-01-08T02:16:40.358Z,99948.34
2023-01-08T02:19:36.517Z,99936.59
2023-01-08T02:22:15.929Z,99945.16
2023-01-08T02:24:42.689Z,99951.03
2023-01-08T02:27:09.672Z,99941.69
2023-01-08T02:29:36.896Z,99931.97
2023-01-08T02:32:05.269Z,99924.97
2023-01-08T02:34:32.843Z,99916.50
2023-01-08T02:37:00.775Z,99903.16
2023-01-08T02:39:33.569Z,99915.06
2023-01-08T02:42:11.190Z,99909.97
2023-01-08T02:44:48.161Z,99908.72
2023-01-08T02:47:40.193Z,99907.38
2023-01-08T02:50:14.861Z,99904.72
2023-01-08T02:52:48.462Z,99897.94
2023-01-08T02:55:16.219Z,99907.72
2023-01-08T02:57:42.991Z,99893.38
2023-01-08T03:00:10.761Z,99902.53
2023-01-08T03:02:39.959Z,99907.56
2023-01-08T03:05:16.177Z,99910.72
2023-01-08T03:07:43.858Z,99908.53
2023-01-08T03:10:11.186Z,99911.66
2023-01-08T03:12:45.216Z,99943.81
2023-01-08T03:15:14.287Z,99933.22
2023-01-08T03:17:47.143Z,99914.91
2023-01-08T03:20:19.807Z,99908.50
2023-01-08T03:22:50.171Z,99904.88
2023-01-08T03:25:19.329Z,99904.69
2023-01-08T03:27:50.880Z,99891.66
2023-01-08T03:30:18.916Z,99899.31
2023-01-08T03:32:46.227Z,99898.78
2023-01-08T03:35:17.182Z,99894.88
2023-01-08T03:37:46.335Z,99895.16
2023-01-08T03:40:20.700Z,99892.66
2023-01-08T03:42:47.751Z,99888.63
2023-01-08T03:45:14.747Z,99887.25
2023-01-08T03:47:43.046Z,99880.63
2023-01-08T03:50:12.646Z,99893.25
2023-01-08T03:52:39.538Z,99885.78
2023-01-08T03:55:06.848Z,99893.47
2023-01-08T03:57:33.684Z,99881.63
2023-01-08T04:00:00.426Z,99882.81
2023-01-08T04:02:27.341Z,99882.03
2023-01-08T04:04:54.423Z,99893.56
2023-01-08T04:07:21.392Z,99892.78
2023-01-08T04:09:48.497Z,99893.53
2023-01-08T04:12:15.631Z,99890.34
2023-01-08T04:14:42.917Z,99901.06
2023-01-08T04:17:13.324Z,99911.56
2023-01-08T04:19:40.175Z,99920.59
2023-01-08T04:22:06.956Z,99911.84
2023-01-08T04:24:33.784Z,99911.66
2023-01-08T04:27:00.738Z,99904.69
2023-01-08T04:29:28.328Z,99900.81
2023-01-08T04:31:55.076Z,99885.84
2023-01-08T04:34:21.840Z,99888.91
2023-01-08T04:36:49.028Z,99896.94
2023-01-08T04:39:16.031Z,99889.53
2023-01-08T04:41:43.054Z,99885.34
2023-01-08T04:44:09.934Z,99887.44
2023-01-08T04:46:37.043Z,99886.56
2023-01-08T04:49:03.959Z,99874.41
2023-01-08T04:51:30.782Z,99881.38
2023-01-08T04:53:57.651Z,99874.50
2023-01-08T04:56:24.516Z,99875.88
2023-01-08T04:58:52.172Z,99876.66
2023-01-08T05:01:23.808Z,99872.22
2023-01-08T05:03:58.901Z,99872.59
2023-01-08T05:06:26.554Z,99873.38
2023-01-08T05:08:54.344Z,99880.47
2023-01-08T05:11:21.570Z,99880.81
2023-01-08T05:13:49.046Z,99870.91
2023-01-08T05:16:16.611Z,99880.03
2023-01-08T05:18:44.459Z,99880.28
2023-01-08T05:21:11.834Z,99876.53
2023-01-08T05:23:38.637Z,99868.84
2023-01-08T05:26:06.493Z,99863.66
2023-01-08T05:28:33.431Z,99866.06
2023-01-08T05:31:00.455Z,99868.16
2023-01-08T05:33:27.371Z,99879.03
2023-01-08T05:35:54.584Z,99872.03
2023-01-08T05:38:21.243Z,99860.91
2023-01-08T05:40:48.030Z,99867.84
2023-01-08T05:43:14.801Z,99877.59
2023-01-08T05:45:41.662Z,99873.50
2023-01-08T05:48:09.286Z,99882.66
2023-01-08T05:50:36.350Z,99879.28
2023-01-08T05:53:07.774Z,99881.66
2023-01-08T05:55:34.966Z,99883.53
2023-01-08T05:58:03.819Z,99882.81
2023-01-08T06:00:31.598Z,99882.84
2023-01-08T06:02:58.512Z,99879.00
2023-01-08T06:05:25.491Z,99893.22
2023-01-08T06:07:52.370Z,99892.75
2023-01-08T06:10:19.091Z,99886.06
2023-01-08T06:12:45.989Z,99885.06
2023-01-08T06:15:12.946Z,99878.72
2023-01-08T06:17:39.739Z,99879.56
2023-01-08T06:20:06.863Z,99883.19
2023-01-08T06:22:34.763Z,99879.78
2023-01-08T06:25:01.832Z,99873.72
2023-01-08T06:27:29.292Z,99863.56
2023-01-08T06:29:56.228Z,99877.56
2023-01-08T06:32:22.953Z,99870.19
2023-01-08T06:34:49.742Z,99867.72
2023-01-08T06:37:16.397Z,99869.88
2023-01-08T06:39:43.146Z,99876.00
2023-01-08T06:42:09.819Z,99869.22
2023-01-08T06:44:37.063Z,99874.25
2023-01-08T06:47:03.777Z,99874.56
2023-01-08T06:49:30.637Z,99873.03
2023-01-08T06:51:57.794Z,99884.00
2023-01-08T06:54:24.970Z,99872.59
2023-01-08T06:56:54.257Z,99860.38
2023-01-08T06:59:21.843Z,99857.28
2023-01-08T07:01:49.492Z,99849.75
2023-01-08T07:04:17.541Z,99858.22
2023-01-08T07:06:44.801Z,99866.84
2023-01-08T07:09:15.577Z,99863.41
2023-01-08T07:11:42.589Z,99865.59
2023-01-08T07:14:09.515Z,99866.06
2023-01-08T07:16:36.570Z,99871.16
2023-01-08T07:19:03.377Z,99864.22
2023-01-08T07:21:31.145Z,99859.28
2023-01-08T07:23:59.535Z,99853.13
2023-01-08T07:26:26.480Z,99850.50
2023-01-08T07:28:53.415Z,99856.34
2023-01-08T07:31:20.245Z,99858.06
2023-01-08T07:33:47.260Z,99853.66
2023-01-08T07:36:14.102Z,99848.03
2023-01-08T07:38:41.315Z,99843.53
2023-01-08T07:41:08.100Z,99857.59
2023-01-08T07:43:35.585Z,99851.69
2023-01-08T07:46:04.272Z,99839.63
2023-01-08T07:48:31.618Z,99841.47
2023-01-08T07:51:03.399Z,99835.81
2023-01-08T07:53:30.366Z,99842.16
2023-01-08T07:56:05.855Z,99830.03
2023-01-08T07:58:33.216Z,99846.53
2023-01-08T08:01:00.924Z,99830.81
2023-01-08T08:03:27.951Z,99834.22
2023-01-08T08:05:54.767Z,99840.09
2023-01-08T08:08:21.650Z,99847.50
2023-01-08T08:10:48.456Z,99842.44
2023-01-08T08:13:15.349Z,99845.41
2023-01-08T08:15:42.300Z,99844.06
2023-01-08T08:18:10.028Z,99836.88
2023-01-08T08:20:37.282Z,99846.06
2023-01-08T08:23:15.430Z,99833.59
2023-01-08T08:25:42.849Z,99841.22
2023-01-08T08:28:11.899Z,99830.09
2023-01-08T08:30:41.986Z,99816.59
2023-01-08T08:33:09.865Z,99829.59
2023-01-08T08:35:37.152Z,99812.19
2023-01-08T08:38:04.706Z,99819.50
2023-01-08T08:40:31.485Z,99800.69
2023-01-08T08:43:03.545Z,99808.41
2023-01-08T08:45:30.640Z,99801.94
2023-01-08T08:47:57.425Z,99789.50
2023-01-08T08:50:24.728Z,99794.84
2023-01-08T08:52:51.738Z,99797.44
2023-01-08T08:55:19.232Z,99791.19
2023-01-08T08:57:47.505Z,99791.22
2023-01-08T09:00:15.463Z,99786.94
2023-01-08T09:02:42.601Z,99784.13
2023-01-08T09:05:10.396Z,99786.94
2023-01-08T09:11:02.645Z,99785.94
2023-01-08T09:13:29.625Z,99780.28
2023-01-08T09:15:59.271Z,99781.03
2023-01-08T09:18:26.361Z,99767.16
2023-01-08T09:20:53.471Z,99765.84
2023-01-08T09:23:20.512Z,99765.94
2023-01-08T09:44:41.117Z,99762.88
2023-01-08T09:47:32.212Z,99768.19
2023-01-08T09:50:25.777Z,99768.81
2023-01-08T09:52:52.751Z,99760.88
2023-01-08T09:55:21.593Z,99766.06
2023-01-08T09:57:49.059Z,99765.41
2023-01-08T10:00:20.843Z,99774.03
2023-01-08T10:02:51.645Z,99761.56
2023-01-08T10:05:18.784Z,99761.00
2023-01-08T10:07:46.257Z,99759.97
2023-01-08T10:10:26.524Z,99757.38
2023-01-08T10:12:53.825Z,99752.88
2023-01-08T10:15:21.954Z,99754.44
2023-01-08T10:18:07.618Z,99748.56
2023-01-08T10:20:34.531Z,99736.81
2023-01-08T10:23:25.699Z,99747.28
2023-01-08T10:25:53.111Z,99753.06
2023-01-08T10:28:28.116Z,99741.25
2023-01-08T10:31:05.134Z,99747.88
2023-01-08T10:33:39.629Z,99751.63
2023-01-08T10:36:09.128Z,99751.88
2023-01-08T10:38:40.652Z,99753.94
2023-01-08T10:41:11.201Z,99753.13
2023-01-08T10:43:55.580Z,99748.34
2023-01-08T10:46:26.389Z,99740.03
2023-01-08T10:48:56.331Z,99737.03
2023-01-08T10:51:28.215Z,99732.06
2023-01-08T10:53:58.427Z,99736.31
2023-01-08T10:56:30.478Z,99727.84
2023-01-08T10:58:57.349Z,99731.59
2023-01-08T11:01:28.909Z,99718.91
2023-01-08T11:04:06.409Z,99706.09
2023-01-08T11:06:37.046Z,99710.78
2023-01-08T11:09:18.493Z,99717.88
2023-01-08T11:11:45.402Z,99715.63
2023-01-08T11:14:27.123Z,99721.22
2023-01-08T11:16:55.787Z,99711.63
2023-01-08T11:19:26.397Z,99711.88
2023-01-08T11:22:17.626Z,99714.09
2023-01-08T11:24:44.956Z,99721.38
2023-01-08T11:27:40.559Z,99710.94
2023-01-08T11:30:26.061Z,99706.28
2023-01-08T11:33:06.718Z,99696.56
2023-01-08T11:35:37.354Z,99691.75
2023-01-08T11:38:06.384Z,99676.78
2023-01-08T11:40:42.108Z,99677.16
2023-01-08T11:43:24.586Z,99668.38
2023-01-08T11:46:35.929Z,99679.53
2023-01-08T11:49:29.832Z,99683.28
2023-01-08T11:52:04.617Z,99680.09
2023-01-08T11:54:37.480Z,99686.13
2023-01-08T11:57:35.034Z,99672.78
2023-01-08T12:00:14.190Z,99672.63
2023-01-08T12:02:59.052Z,99661.78
2023-01-08T12:05:36.398Z,99652.94
2023-01-08T12:08:06.769Z,99658.69
2023-01-08T12:10:56.887Z,99659.38
2023-01-08T12:13:47.897Z,99659.03
2023-01-08T12:16:36.033Z,99647.47
2023-01-08T12:19:30.187Z,99651.19
2023-01-08T12:22:34.429Z,99650.59
2023-01-08T12:25:04.092Z,99645.16
2023-01-08T12:28:08.644Z,99643.22
2023-01-08T12:30:38.730Z,99640.28
2023-01-08T12:33:40.219Z,99644.00
2023-01-08T12:36:16.915Z,99637.22
2023-01-08T12:38:44.965Z,99636.72
2023-01-08T12:41:13.557Z,99634.88
2023-01-08T12:44:00.341Z,99628.22
2023-01-08T12:46:31.887Z,99630.81
2023-01-08T12:48:59.888Z,99629.16
2023-01-08T12:51:39.788Z,99628.53
2023-01-08T12:54:27.911Z,99621.81
2023-01-08T12:57:14.951Z,99628.22
2023-01-08T13:00:09.566Z,99621.84
2023-01-08T13:02:59.412Z,99608.63
2023-01-08T13:05:34.142Z,99602.22
2023-01-08T13:08:04.771Z,99604.63
2023-01-08T13:10:31.690Z,99598.81
2023-01-08T13:13:01.853Z,99586.13
2023-01-08T13:15:33.269Z,99590.31
2023-01-08T13:18:20.231Z,99581.16
2023-01-08T13:20:58.222Z,99581.78
2023-01-08T13:23:28.321Z,99568.09
2023-01-08T13:25:57.637Z,99569.25
2023-01-08T13:28:39.636Z,99556.91
2023-01-08T13:31:21.851Z,99562.16
2023-01-08T13:33:52.779Z,99548.09
2023-01-08T13:36:24.162Z,99540.53
2023-01-08T13:39:09.832Z,99540.03
2023-01-08T13:41:40.209Z,99535.44
2023-01-08T13:44:20.541Z,99523.09
2023-01-08T13:46:54.135Z,99535.88
2023-01-08T13:49:36.258Z,99523.50
2023-01-08T13:52:03.578Z,99505.38
2023-01-08T13:54:35.559Z,99522.28
2023-01-08T13:57:05.990Z,99508.47
2023-01-08T13:59:44.035Z,99494.97
2023-01-08T14:02:31.072Z,99489.25
2023-01-08T14:05:00.546Z,99485.06
2023-01-08T14:07:28.032Z,99472.88
2023-01-08T14:10:09.978Z,99470.91
2023-01-08T14:12:40.106Z,99477.91
2023-01-08T14:15:18.001Z,99478.84
2023-01-08T14:17:51.114Z,99464.44
2023-01-08T14:20:27.971Z,99475.78
2023-01-08T14:22:54.957Z,99459.69
2023-01-08T14:25:22.843Z,99458.78
2023-01-08T14:28:01.903Z,99459.34
2023-01-08T14:30:30.010Z,99462.69
2023-01-08T14:32:57.439Z,99468.09
2023-01-08T14:35:31.435Z,99470.06
2023-01-08T14:37:59.980Z,99462.41
2023-01-08T14:40:40.375Z,99451.41
2023-01-08T14:43:11.953Z,99448.97
2023-01-08T14:45:40.652Z,99451.19
2023-01-08T14:48:24.478Z,99448.06
2023-01-08T14:51:00.924Z,99443.56
2023-01-08T14:53:32.620Z,99438.28
2023-01-08T14:56:00.636Z,99436.09
2023-01-08T14:58:30.937Z,99442.09
2023-01-08T15:01:14.709Z,99440.75
2023-01-08T15:03:43.192Z,99440.81
2023-01-08T15:06:14.208Z,99434.59
2023-01-08T15:08:41.813Z,99439.94
2023-01-08T15:11:30.998Z,99442.50
2023-01-08T15:13:58.913Z,99445.03
2023-01-08T15:16:31.938Z,99446.06
2023-01-08T15:19:05.849Z,99439.53
2023-01-08T15:21:33.826Z,99439.47
2023-01-08T15:24:01.440Z,99442.38
2023-01-08T15:26:28.901Z,99432.88
2023-01-08T15:28:59.274Z,99444.13
2023-01-08T15:31:41.458Z,99452.00
2023-01-08T15:34:08.858Z,99444.66
2023-01-08T15:36:35.899Z,99444.66
2023-01-08T15:39:05.010Z,99440.25
2023-01-08T15:41:57.304Z,99447.09
2023-01-08T15:44:24.769Z,99427.25
2023-01-08T15:46:55.287Z,99418.66
2023-01-08T15:49:22.632Z,99417.16
2023-01-08T15:51:51.818Z,99405.38
2023-01-08T15:54:24.020Z,99386.38
2023-01-08T15:56:51.164Z,99385.81
2023-01-08T15:59:18.168Z,99376.34
2023-01-08T16:01:45.378Z,99382.78
2023-01-08T16:04:12.307Z,99381.47
2023-01-08T16:07:24.605Z,99380.16
2023-01-08T16:09:51.459Z,99367.91
2023-01-08T16:12:18.532Z,99370.34
2023-01-08T16:14:45.263Z,99367.53
2023-01-08T16:17:12.023Z,99372.19
2023-01-08T16:19:42.231Z,99366.13
2023-01-08T16:22:09.056Z,99365.78
2023-01-08T16:24:36.019Z,99363.69
2023-01-08T16:27:02.969Z,99358.56
2023-01-08T16:29:30.130Z,99358.88
2023-01-08T16:31:57.127Z,99355.72
2023-01-08T16:34:25.271Z,99355.28
2023-01-08T16:36:52.206Z,99355.72
2023-01-08T16:39:19.628Z,99344.19
2023-01-08T16:41:47.919Z,99346.63
2023-01-08T16:44:19.551Z,99339.88
2023-01-08T16:46:47.238Z,99347.69
2023-01-08T16:49:14.244Z,99333.50
2023-01-08T16:51:41.323Z,99337.13
2023-01-08T16:54:12.075Z,99335.91
2023-01-08T16:56:41.124Z,99324.72
2023-01-08T16:59:18.281Z,99316.59
2023-01-08T17:01:49.680Z,99319.75
2023-01-08T17:04:16.672Z,99312.50
2023-01-08T17:06:43.820Z,99313.31
2023-01-08T17:09:11.869Z,99314.44
2023-01-08T17:11:39.258Z,99302.66
2023-01-08T17:14:06.323Z,99301.88
2023-01-08T17:16:33.359Z,99291.28
2023-01-08T17:19:00.204Z,99286.56
2023-01-08T17:21:26.946Z,99291.94
2023-01-08T17:23:53.636Z,99291.97
2023-01-08T17:26:20.500Z,99293.09
2023-01-08T17:28:47.447Z,99281.47
2023-01-08T17:31:18.336Z,99273.41
2023-01-08T17:33:50.143Z,99280.63
2023-01-08T17:36:18.870Z,99282.03
2023-01-08T17:38:53.015Z,99274.09
2023-01-08T17:41:39.725Z,99275.78
2023-01-08T17:44:07.549Z,99271.88
2023-01-08T17:46:42.230Z,99264.38
2023-01-08T17:49:11.398Z,99260.91
2023-01-08T17:51:40.760Z,99258.19
2023-01-08T17:54:10.981Z,99256.16
2023-01-08T17:56:39.285Z,99248.38
2023-01-08T17:59:06.749Z,99235.19
2023-01-08T18:01:35.226Z,99237.56
2023-01-08T18:04:02.522Z,99234.84
2023-01-08T18:06:29.465Z,99232.34
2023-01-08T18:08:56.997Z,99227.78
2023-01-08T18:11:25.522Z,99223.94
2023-01-08T18:13:56.819Z,99220.34
2023-01-08T18:16:24.148Z,99220.19
2023-01-08T18:18:51.286Z,99222.22
2023-01-08T18:21:19.822Z,99228.00
2023-01-08T18:23:47.726Z,99224.13
2023-01-08T18:26:18.314Z,99230.72
2023-01-08T18:28:45.180Z,99221.22
2023-01-08T18:31:14.067Z,99221.56
2023-01-08T18:33:44.384Z,99222.72
2023-01-08T18:36:12.813Z,99212.75
2023-01-08T18:38:41.923Z,99218.44
2023-01-08T18:41:09.685Z,99208.78
2023-01-08T18:43:37.044Z,99214.22
2023-01-08T18:46:06.773Z,99204.47
2023-01-08T18:48:34.552Z,99196.22
2023-01-08T18:51:05.981Z,99195.81
2023-01-08T18:53:33.417Z,99185.34
2023-01-08T18:56:03.516Z,99179.50
2023-01-08T18:58:30.421Z,99164.38
2023-01-08T19:01:03.933Z,99172.66
2023-01-08T19:03:30.950Z,99171.72
2023-01-08T19:05:58.006Z,99160.97
2023-01-08T19:08:25.472Z,99163.13
2023-01-08T19:10:52.311Z,99161.34
2023-01-08T19:13:19.607Z,99162.63
2023-01-08T19:15:47.448Z,99150.44
2023-01-08T19:18:14.414Z,99154.94
2023-01-08T19:20:43.565Z,99153.28
2023-01-08T19:23:10.883Z,99145.09
2023-01-08T19:25:40.925Z,99137.91
2023-01-08T19:28:11.397Z,99133.75
2023-01-08T19:30:38.361Z,99125.78
2023-01-08T19:33:06.225Z,99120.22
2023-01-08T19:36:03.279Z,99124.34
2023-01-08T19:38:30.185Z,99118.44
2023-01-08T19:40:58.967Z,99107.50
2023-01-08T19:43:43.851Z,99105.19
2023-01-08T19:46:15.622Z,99104.09
2023-01-08T19:48:44.048Z,99098.06
2023-01-08T19:51:11.837Z,99097.47
2023-01-08T19:53:39.635Z,99085.78
2023-01-08T19:56:09.051Z,99092.75
2023-01-08T19:58:36.367Z,99082.13
2023-01-08T20:01:15.615Z,99089.88
2023-01-08T20:03:43.770Z,99074.69
2023-01-08T20:06:15.581Z,99081.44
2023-01-08T20:08:44.323Z,99067.00
2023-01-08T20:11:16.617Z,99078.53
2023-01-08T20:13:43.994Z,99064.72
2023-01-08T20:16:14.249Z,99060.97
2023-01-08T20:18:54.188Z,99058.66
2023-01-08T20:21:21.959Z,99061.72
2023-01-08T20:23:49.020Z,99060.38
2023-01-08T20:26:18.093Z,99059.63
2023-01-08T20:28:46.371Z,99060.28
2023-01-08T20:31:17.292Z,99050.75
2023-01-08T20:33:44.749Z,99049.88
2023-01-08T20:36:18.489Z,99051.34
2023-01-08T20:38:46.184Z,99047.44
2023-01-08T20:41:13.651Z,99047.84
2023-01-08T20:43:41.055Z,99056.75
2023-01-08T20:46:13.870Z,99042.75
2023-01-08T20:48:47.720Z,99043.34
2023-01-08T20:51:15.599Z,99039.53
2023-01-08T20:53:42.418Z,99035.75
2023-01-08T20:56:12.367Z,99043.94
2023-01-08T20:58:40.849Z,99034.97
2023-01-08T21:01:18.710Z,99038.44
2023-01-08T21:03:46.410Z,99037.34
2023-01-08T21:06:16.713Z,99028.66
2023-01-08T21:08:46.657Z,99024.03
2023-01-08T21:11:14.461Z,99011.81
2023-01-08T21:13:41.846Z,99023.97
2023-01-08T21:16:12.206Z,99018.84
2023-01-08T21:18:43.867Z,99015.06
2023-01-08T21:21:11.993Z,99037.34
2023-01-08T21:23:38.759Z,99031.34
2023-01-08T21:26:10.124Z,99030.22
2023-01-08T21:28:38.147Z,99038.53
2023-01-08T21:31:14.217Z,99033.59
2023-01-08T21:33:41.774Z,99024.03
2023-01-08T21:36:11.141Z,99040.66
2023-01-08T21:38:38.330Z,99053.72
2023-01-08T21:41:33.174Z,99067.34
2023-01-08T21:44:23.460Z,99050.72
2023-01-08T21:46:58.626Z,99056.19
2023-01-08T21:49:25.929Z,99052.69
2023-01-08T21:52:12.377Z,99062.75
2023-01-08T21:54:40.491Z,99056.16
2023-01-08T21:57:09.281Z,99047.94
2023-01-08T21:59:37.002Z,99057.31
2023-01-08T22:02:08.581Z,99062.56
2023-01-08T22:04:35.807Z,99052.47
2023-01-08T22:07:09.933Z,99042.75
2023-01-08T22:09:37.355Z,99047.06
2023-01-08T22:12:04.440Z,99056.38
2023-01-08T22:14:31.531Z,99048.03
2023-01-08T22:16:58.756Z,99062.94
2023-01-08T22:19:26.177Z,99054.63
2023-01-08T22:21:53.100Z,99051.81
2023-01-08T22:24:19.995Z,99059.03
2023-01-08T22:26:48.339Z,99050.78
2023-01-08T22:29:18.317Z,99048.34
2023-01-08T22:31:45.311Z,99058.78
2023-01-08T22:34:18.790Z,99062.16
2023-01-08T22:36:46.747Z,99059.78
2023-01-08T22:39:13.432Z,99054.19
2023-01-08T22:41:40.403Z,99066.44
2023-01-08T22:44:07.180Z,99067.38
2023-01-08T22:46:34.059Z,99060.47
2023-01-08T22:49:00.806Z,99066.16
2023-01-08T22:51:27.871Z,99069.91
2023-01-08T22:53:59.791Z,99071.13
2023-01-08T22:56:27.485Z,99074.59
2023-01-08T22:58:57.097Z,99081.50
2023-01-08T23:01:27.697Z,99060.88
2023-01-08T23:03:59.121Z,99079.31
2023-01-08T23:06:28.696Z,99087.25
2023-01-08T23:08:56.177Z,99093.09
2023-01-08T23:11:24.316Z,99085.84
2023-01-08T23:13:51.686Z,99086.22
2023-01-08T23:16:22.440Z,99109.28
2023-01-08T23:18:51.039Z,99107.31
2023-01-08T23:21:19.604Z,99113.84
2023-01-08T23:23:46.683Z,99101.88
2023-01-08T23:26:18.965Z,99109.47
2023-01-08T23:28:47.066Z,99087.53
2023-01-08T23:31:16.897Z,99103.09
2023-01-08T23:33:43.729Z,99123.91
2023-01-08T23:36:10.784Z,99113.69
2023-01-08T23:38:37.795Z,99120.00
2023-01-08T23:41:06.533Z,99118.34
2023-01-08T23:43:33.323Z,99125.69
2023-01-08T23:46:05.200Z,99121.47
2023-01-08T23:48:32.177Z,99125.59
2023-01-08T23:50:59.315Z,99114.53
2023-01-08T23:53:27.068Z,99120.22
2023-01-08T23:55:54.006Z,99109.81
2023-01-08T23:58:21.507Z,99117.13
